sensor_id;sensor_type;location;lat;lon;timestamp;pressure;altitude;pressure_sealevel;temperature;humidity
5413;BME280;2729;50.056;8.678;2023-03-23T00:01:08;99447.09;;;17.09;71.76
5413;BME280;2729;50.056;8.678;2023-03-23T00:03:47;99446.19;;;16.95;77.16
5413;BME280;2729;50.056;8.678;2023-03-23T00:06:14;99447.53;;;17.42;76.55
5413;BME280;2729;50.056;8.678;2023-03-23T00:08:50;99449.44;;;17.13;69.24
5413;BME280;2729;50.056;8.678;2023-03-23T00:11:24;99455.44;;;16.88;73.83
5413;BME280;2729;50.056;8.678;2023-03-23T00:13:52;99451.03;;;16.89;71.57
5413;BME280;2729;50.056;8.678;2023-03-23T00:16:20;99447.63;;;16.87;76.24
5413;BME280;2729;50.056;8.678;2023-03-23T00:19:09;99449.72;;;16.82;73.83
5413;BME280;2729;50.056;8.678;2023-03-23T00:21:37;99440.25;;;16.65;72.00
5413;BME280;2729;50.056;8.678;2023-03-23T00:24:06;99442.88;;;16.65;71.35
5413;BME280;2729;50.056;8.678;2023-03-23T00:26:35;99442.59;;;16.55;71.98
5413;BME280;2729;50.056;8.678;2023-03-23T00:29:03;99431.41;;;16.66;73.31
5413;BME280;2729;50.056;8.678;2023-03-23T00:31:30;99434.78;;;16.54;71.54
5413;BME280;2729;50.056;8.678;2023-03-23T00:33:59;99433.28;;;16.50;72.42
5413;BME280;2729;50.056;8.678;2023-03-23T00:36:27;99431.00;;;16.58;74.13
5413;BME280;2729;50.056;8.678;2023-03-23T00:38:54;99427.97;;;16.64;71.35
5413;BME280;2729;50.056;8.678;2023-03-23T00:41:24;99423.31;;;16.69;72.06
5413;BME280;2729;50.056;8.678;2023-03-23T00:43:54;99413.91;;;16.51;73.65
5413;BME280;2729;50.056;8.678;2023-03-23T00:46:20;99416.66;;;16.90;74.06
5413;BME280;2729;50.056;8.678;2023-03-23T00:48:46;99416.03;;;16.73;71.30
5413;BME280;2729;50.056;8.678;2023-03-23T00:51:14;99401.84;;;16.47;77.14
5413;BME280;2729;50.056;8.678;2023-03-23T00:53:40;99404.47;;;16.75;75.68
5413;BME280;2729;50.056;8.678;2023-03-23T00:56:07;99398.25;;;16.76;72.79
5413;BME280;2729;50.056;8.678;2023-03-23T00:58:33;99408.78;;;17.03;75.31
5413;BME280;2729;50.056;8.678;2023-03-23T01:01:00;99398.69;;;16.83;75.93
5413;BME280;2729;50.056;8.678;2023-03-23T01:03:26;99402.13;;;16.97;80.39
5413;BME280;2729;50.056;8.678;2023-03-23T01:05:54;99412.75;;;16.69;77.92
5413;BME280;2729;50.056;8.678;2023-03-23T01:08:22;99408.59;;;17.46;83.77
5413;BME280;2729;50.056;8.678;2023-03-23T01:10:49;99401.41;;;17.48;80.29
5413;BME280;2729;50.056;8.678;2023-03-23T01:13:15;99400.84;;;16.90;73.72
5413;BME280;2729;50.056;8.678;2023-03-23T01:15:42;99401.38;;;16.95;79.46
5413;BME280;2729;50.056;8.678;2023-03-23T01:18:09;99401.38;;;16.68;76.38
5413;BME280;2729;50.056;8.678;2023-03-23T01:20:36;99390.13;;;17.06;90.64
5413;BME280;2729;50.056;8.678;2023-03-23T01:23:03;99393.72;;;17.05;78.33
5413;BME280;2729;50.056;8.678;2023-03-23T01:25:35;99395.00;;;17.12;82.30
5413;BME280;2729;50.056;8.678;2023-03-23T01:28:02;99400.44;;;16.69;82.61
5413;BME280;2729;50.056;8.678;2023-03-23T01:30:28;99388.00;;;16.98;91.87
5413;BME280;2729;50.056;8.678;2023-03-23T01:32:55;99385.03;;;16.90;77.12
5413;BME280;2729;50.056;8.678;2023-03-23T01:35:21;99391.88;;;16.93;78.16
5413;BME280;2729;50.056;8.678;2023-03-23T01:37:47;99392.78;;;16.79;86.48
5413;BME280;2729;50.056;8.678;2023-03-23T01:40:15;99392.56;;;16.82;84.06
5413;BME280;2729;50.056;8.678;2023-03-23T01:42:42;99395.94;;;16.43;80.78
5413;BME280;2729;50.056;8.678;2023-03-23T01:45:30;99383.97;;;16.52;82.74
5413;BME280;2729;50.056;8.678;2023-03-23T01:48:03;99381.59;;;16.76;82.43
5413;BME280;2729;50.056;8.678;2023-03-23T01:50:36;99379.25;;;16.57;83.67
5413;BME280;2729;50.056;8.678;2023-03-23T01:53:05;99379.44;;;16.68;84.28
5413;BME280;2729;50.056;8.678;2023-03-23T01:55:35;99393.94;;;16.61;79.42
5413;BME280;2729;50.056;8.678;2023-03-23T01:58:04;99392.72;;;16.52;76.30
5413;BME280;2729;50.056;8.678;2023-03-23T02:00:32;99392.72;;;16.52;80.39
5413;BME280;2729;50.056;8.678;2023-03-23T02:03:00;99388.31;;;16.53;76.79
5413;BME280;2729;50.056;8.678;2023-03-23T02:05:30;99379.44;;;16.68;89.59
5413;BME280;2729;50.056;8.678;2023-03-23T02:08:04;99397.16;;;16.52;81.03
5413;BME280;2729;50.056;8.678;2023-03-23T02:10:35;99396.31;;;16.51;75.58
5413;BME280;2729;50.056;8.678;2023-03-23T02:13:03;99394.28;;;16.28;81.21
5413;BME280;2729;50.056;8.678;2023-03-23T02:15:39;99394.50;;;16.52;76.23
5413;BME280;2729;50.056;8.678;2023-03-23T02:18:27;99386.13;;;16.59;78.48
5413;BME280;2729;50.056;8.678;2023-03-23T02:21:41;99390.19;;;16.51;76.75
5413;BME280;2729;50.056;8.678;2023-03-23T02:26:53;99396.31;;;16.37;77.87
5413;BME280;2729;50.056;8.678;2023-03-23T02:29:45;99381.19;;;16.26;80.13
5413;BME280;2729;50.056;8.678;2023-03-23T02:35:11;99377.88;;;16.37;79.76
5413;BME280;2729;50.056;8.678;2023-03-23T02:37:57;99374.03;;;16.28;81.30
5413;BME280;2729;50.056;8.678;2023-03-23T02:40:47;99375.66;;;16.31;81.43
5413;BME280;2729;50.056;8.678;2023-03-23T02:43:17;99376.09;;;16.37;87.23
5413;BME280;2729;50.056;8.678;2023-03-23T02:45:51;99369.19;;;16.08;91.15
5413;BME280;2729;50.056;8.678;2023-03-23T02:48:20;99368.63;;;15.89;98.17
5413;BME280;2729;50.056;8.678;2023-03-23T02:50:51;99376.50;;;15.89;100.00
5413;BME280;2729;50.056;8.678;2023-03-23T02:53:21;99382.72;;;15.88;100.00
5413;BME280;2729;50.056;8.678;2023-03-23T02:55:53;99384.97;;;15.80;100.00
5413;BME280;2729;50.056;8.678;2023-03-23T02:58:21;99386.22;;;15.58;100.00
5413;BME280;2729;50.056;8.678;2023-03-23T03:00:49;99371.81;;;15.50;100.00
5413;BME280;2729;50.056;8.678;2023-03-23T03:03:19;99380.38;;;14.93;100.00
5413;BME280;2729;50.056;8.678;2023-03-23T03:08:55;99375.94;;;14.48;100.00
5413;BME280;2729;50.056;8.678;2023-03-23T03:11:23;99383.88;;;14.46;100.00
5413;BME280;2729;50.056;8.678;2023-03-23T03:14:08;99377.75;;;14.30;100.00
5413;BME280;2729;50.056;8.678;2023-03-23T03:16:46;99367.00;;;14.35;100.00
5413;BME280;2729;50.056;8.678;2023-03-23T03:19:28;99366.59;;;14.58;100.00
5413;BME280;2729;50.056;8.678;2023-03-23T03:21:59;99361.69;;;14.68;100.00
5413;BME280;2729;50.056;8.678;2023-03-23T03:24:40;99349.13;;;14.73;100.00
5413;BME280;2729;50.056;8.678;2023-03-23T03:27:16;99352.88;;;14.69;100.00
5413;BME280;2729;50.056;8.678;2023-03-23T03:29:54;99363.31;;;14.55;100.00
5413;BME280;2729;50.056;8.678;2023-03-23T03:32:38;99371.53;;;14.48;100.00
5413;BME280;2729;50.056;8.678;2023-03-23T03:35:06;99377.16;;;14.25;100.00
5413;BME280;2729;50.056;8.678;2023-03-23T03:37:37;99364.88;;;14.41;100.00
5413;BME280;2729;50.056;8.678;2023-03-23T03:40:10;99354.38;;;14.41;100.00
5413;BME280;2729;50.056;8.678;2023-03-23T03:42:40;99363.31;;;14.55;100.00
5413;BME280;2729;50.056;8.678;2023-03-23T03:45:09;99365.41;;;14.32;100.00
5413;BME280;2729;50.056;8.678;2023-03-23T03:47:39;99376.19;;;14.43;100.00
5413;BME280;2729;50.056;8.678;2023-03-23T03:50:06;99373.03;;;14.53;100.00
5413;BME280;2729;50.056;8.678;2023-03-23T03:52:33;99375.22;;;14.29;100.00
5413;BME280;2729;50.056;8.678;2023-03-23T03:54:59;99373.66;;;14.42;100.00
5413;BME280;2729;50.056;8.678;2023-03-23T03:57:29;99371.53;;;14.48;100.00
5413;BME280;2729;50.056;8.678;2023-03-23T03:59:58;99372.50;;;14.30;100.00
5413;BME280;2729;50.056;8.678;2023-03-23T04:02:41;99371.50;;;14.33;100.00
5413;BME280;2729;50.056;8.678;2023-03-23T04:05:07;99379.09;;;14.22;100.00
5413;BME280;2729;50.056;8.678;2023-03-23T04:07:37;99377.13;;;14.09;100.00
5413;BME280;2729;50.056;8.678;2023-03-23T04:10:06;99381.47;;;14.26;100.00
5413;BME280;2729;50.056;8.678;2023-03-23T04:12:33;99381.22;;;14.31;100.00
5413;BME280;2729;50.056;8.678;2023-03-23T04:15:19;99370.88;;;14.12;100.00
5413;BME280;2729;50.056;8.678;2023-03-23T04:17:47;99368.94;;;14.15;100.00
5413;BME280;2729;50.056;8.678;2023-03-23T04:20:13;99372.91;;;14.23;100.00
5413;BME280;2729;50.056;8.678;2023-03-23T04:22:46;99375.09;;;13.99;100.00
5413;BME280;2729;50.056;8.678;2023-03-23T04:25:17;99377.56;;;14.02;100.00
5413;BME280;2729;50.056;8.678;2023-03-23T04:27:50;99382.31;;;14.11;100.00
5413;BME280;2729;50.056;8.678;2023-03-23T04:30:25;99391.44;;;14.04;100.00
5413;BME280;2729;50.056;8.678;2023-03-23T04:33:06;99394.81;;;14.06;100.00
5413;BME280;2729;50.056;8.678;2023-03-23T04:35:32;99392.47;;;14.17;100.00
5413;BME280;2729;50.056;8.678;2023-03-23T04:38:09;99397.63;;;14.19;100.00
5413;BME280;2729;50.056;8.678;2023-03-23T04:40:39;99393.81;;;14.08;100.00
5413;BME280;2729;50.056;8.678;2023-03-23T04:43:15;99388.38;;;13.96;100.00
5413;BME280;2729;50.056;8.678;2023-03-23T04:46:13;99394.25;;;13.83;100.00
5413;BME280;2729;50.056;8.678;2023-03-23T04:48:43;99391.59;;;14.01;100.00
5413;BME280;2729;50.056;8.678;2023-03-23T04:51:16;99397.84;;;13.98;100.00
5413;BME280;2729;50.056;8.678;2023-03-23T04:53:45;99392.59;;;13.98;100.00
5413;BME280;2729;50.056;8.678;2023-03-23T04:56:11;99389.16;;;14.13;100.00
5413;BME280;2729;50.056;8.678;2023-03-23T04:58:42;99391.22;;;14.24;100.00
5413;BME280;2729;50.056;8.678;2023-03-23T05:01:29;99384.31;;;14.06;100.00
5413;BME280;2729;50.056;8.678;2023-03-23T05:04:08;99386.56;;;14.29;100.00
5413;BME280;2729;50.056;8.678;2023-03-23T05:06:34;99394.59;;;14.26;100.00
5413;BME280;2729;50.056;8.678;2023-03-23T05:09:08;99389.75;;;14.19;100.00
5413;BME280;2729;50.056;8.678;2023-03-23T05:11:34;99385.81;;;13.94;100.00
5413;BME280;2729;50.056;8.678;2023-03-23T05:14:00;99387.22;;;14.17;100.00
5413;BME280;2729;50.056;8.678;2023-03-23T05:16:26;99383.88;;;14.46;100.00
5413;BME280;2729;50.056;8.678;2023-03-23T05:18:54;99387.88;;;14.54;100.00
5413;BME280;2729;50.056;8.678;2023-03-23T05:21:23;99396.09;;;14.47;100.00
5413;BME280;2729;50.056;8.678;2023-03-23T05:23:52;99399.72;;;14.61;100.00
5413;BME280;2729;50.056;8.678;2023-03-23T05:26:21;99398.91;;;14.27;100.00
5413;BME280;2729;50.056;8.678;2023-03-23T05:28:50;99404.09;;;14.29;100.00
5413;BME280;2729;50.056;8.678;2023-03-23T05:31:22;99395.31;;;14.45;100.00
5413;BME280;2729;50.056;8.678;2023-03-23T05:33:51;99390.72;;;14.33;100.00
5413;BME280;2729;50.056;8.678;2023-03-23T05:36:40;99391.91;;;14.28;100.00
5413;BME280;2729;50.056;8.678;2023-03-23T05:39:26;99396.72;;;14.20;100.00
5413;BME280;2729;50.056;8.678;2023-03-23T05:42:13;99401.50;;;14.44;100.00
5413;BME280;2729;50.056;8.678;2023-03-23T05:44:46;99409.66;;;14.23;100.00
5413;BME280;2729;50.056;8.678;2023-03-23T05:47:13;99409.97;;;14.50;100.00
5413;BME280;2729;50.056;8.678;2023-03-23T05:49:46;99402.16;;;14.32;100.00
5413;BME280;2729;50.056;8.678;2023-03-23T05:52:16;99407.38;;;14.16;100.00
5413;BME280;2729;50.056;8.678;2023-03-23T05:54:42;99418.34;;;14.07;100.00
5413;BME280;2729;50.056;8.678;2023-03-23T05:57:08;99421.59;;;14.12;100.00
5413;BME280;2729;50.056;8.678;2023-03-23T05:59:47;99420.94;;;14.25;100.00
5413;BME280;2729;50.056;8.678;2023-03-23T06:02:19;99417.47;;;14.40;100.00
5413;BME280;2729;50.056;8.678;2023-03-23T06:04:45;99430.09;;;14.33;100.00
5413;BME280;2729;50.056;8.678;2023-03-23T06:07:20;99428.28;;;14.51;100.00
5413;BME280;2729;50.056;8.678;2023-03-23T06:09:54;99433.47;;;14.35;100.00
5413;BME280;2729;50.056;8.678;2023-03-23T06:12:23;99446.56;;;14.20;100.00
5413;BME280;2729;50.056;8.678;2023-03-23T06:15:25;99439.41;;;14.39;100.00
5413;BME280;2729;50.056;8.678;2023-03-23T06:18:11;99436.19;;;14.34;100.00
5413;BME280;2729;50.056;8.678;2023-03-23T06:21:00;99434.03;;;14.42;100.00
5413;BME280;2729;50.056;8.678;2023-03-23T06:23:46;99445.03;;;14.48;100.00
5413;BME280;2729;50.056;8.678;2023-03-23T06:26:14;99447.16;;;14.42;100.00
5413;BME280;2729;50.056;8.678;2023-03-23T06:28:45;99447.41;;;14.53;100.00
5413;BME280;2729;50.056;8.678;2023-03-23T06:31:11;99454.03;;;14.27;100.00
5413;BME280;2729;50.056;8.678;2023-03-23T06:33:37;99449.53;;;14.46;100.00
5413;BME280;2729;50.056;8.678;2023-03-23T06:36:19;99443.63;;;14.59;100.00
5413;BME280;2729;50.056;8.678;2023-03-23T06:39:03;99441.06;;;14.57;100.00
5413;BME280;2729;50.056;8.678;2023-03-23T06:41:46;99449.13;;;14.54;100.00
5413;BME280;2729;50.056;8.678;2023-03-23T06:44:12;99450.97;;;14.52;100.00
5413;BME280;2729;50.056;8.678;2023-03-23T06:46:41;99452.50;;;14.56;100.00
5413;BME280;2729;50.056;8.678;2023-03-23T06:49:24;99450.63;;;14.42;100.00
5413;BME280;2729;50.056;8.678;2023-03-23T06:52:10;99459.78;;;14.51;100.00
5413;BME280;2729;50.056;8.678;2023-03-23T06:54:36;99462.50;;;14.50;100.00
5413;BME280;2729;50.056;8.678;2023-03-23T06:57:07;99448.09;;;14.57;100.00
5413;BME280;2729;50.056;8.678;2023-03-23T06:59:33;99454.13;;;14.74;100.00
5413;BME280;2729;50.056;8.678;2023-03-23T07:02:00;99464.09;;;14.52;100.00
5413;BME280;2729;50.056;8.678;2023-03-23T07:04:27;99459.47;;;14.73;100.00
5413;BME280;2729;50.056;8.678;2023-03-23T07:07:01;99454.97;;;14.75;100.00
5413;BME280;2729;50.056;8.678;2023-03-23T07:09:29;99458.03;;;14.67;100.00
5413;BME280;2729;50.056;8.678;2023-03-23T07:11:55;99463.03;;;14.72;100.00
5413;BME280;2729;50.056;8.678;2023-03-23T07:14:29;99456.00;;;14.72;100.00
5413;BME280;2729;50.056;8.678;2023-03-23T07:16:56;99457.09;;;14.84;100.00
5413;BME280;2729;50.056;8.678;2023-03-23T07:19:22;99462.00;;;14.90;100.00
5413;BME280;2729;50.056;8.678;2023-03-23T07:21:48;99465.31;;;14.94;100.00
5413;BME280;2729;50.056;8.678;2023-03-23T07:24:14;99465.66;;;14.72;100.00
5413;BME280;2729;50.056;8.678;2023-03-23T07:26:58;99475.88;;;14.61;100.00
5413;BME280;2729;50.056;8.678;2023-03-23T07:29:25;99469.47;;;14.66;100.00
5413;BME280;2729;50.056;8.678;2023-03-23T07:32:00;99468.94;;;14.75;100.00
5413;BME280;2729;50.056;8.678;2023-03-23T07:34:27;99482.69;;;14.80;100.00
5413;BME280;2729;50.056;8.678;2023-03-23T07:37:11;99475.22;;;14.73;100.00
5413;BME280;2729;50.056;8.678;2023-03-23T07:39:40;99488.53;;;14.70;100.00
5413;BME280;2729;50.056;8.678;2023-03-23T07:42:07;99485.75;;;14.89;100.00
5413;BME280;2729;50.056;8.678;2023-03-23T07:44:41;99486.22;;;15.11;100.00
5413;BME280;2729;50.056;8.678;2023-03-23T07:47:10;99485.72;;;15.04;100.00
5413;BME280;2729;50.056;8.678;2023-03-23T07:49:36;99484.53;;;14.94;100.00
5413;BME280;2729;50.056;8.678;2023-03-23T07:52:13;99479.78;;;15.17;100.00
5413;BME280;2729;50.056;8.678;2023-03-23T07:54:40;99482.50;;;14.99;100.00
5413;BME280;2729;50.056;8.678;2023-03-23T07:57:21;99491.41;;;15.12;100.00
5413;BME280;2729;50.056;8.678;2023-03-23T07:59:51;99485.41;;;14.79;100.00
5413;BME280;2729;50.056;8.678;2023-03-23T08:02:17;99493.69;;;15.19;100.00
5413;BME280;2729;50.056;8.678;2023-03-23T08:04:43;99498.63;;;14.77;100.00
5413;BME280;2729;50.056;8.678;2023-03-23T08:07:13;99507.00;;;15.16;100.00
5413;BME280;2729;50.056;8.678;2023-03-23T08:09:51;99505.56;;;15.26;100.00
5413;BME280;2729;50.056;8.678;2023-03-23T08:12:39;99514.63;;;14.89;100.00
5413;BME280;2729;50.056;8.678;2023-03-23T08:15:40;99516.25;;;14.75;100.00
5413;BME280;2729;50.056;8.678;2023-03-23T08:18:31;99515.91;;;14.97;100.00
5413;BME280;2729;50.056;8.678;2023-03-23T08:21:22;99521.56;;;15.37;100.00
5413;BME280;2729;50.056;8.678;2023-03-23T08:24:07;99516.63;;;15.47;100.00
5413;BME280;2729;50.056;8.678;2023-03-23T08:26:45;99519.63;;;14.93;100.00
5413;BME280;2729;50.056;8.678;2023-03-23T08:29:31;99518.69;;;15.26;100.00
5413;BME280;2729;50.056;8.678;2023-03-23T08:32:17;99521.50;;;15.07;100.00
5413;BME280;2729;50.056;8.678;2023-03-23T08:35:10;99518.63;;;15.11;100.00
5413;BME280;2729;50.056;8.678;2023-03-23T08:37:50;99540.41;;;15.29;100.00
5413;BME280;2729;50.056;8.678;2023-03-23T08:40:22;99542.78;;;15.02;100.00
5413;BME280;2729;50.056;8.678;2023-03-23T08:43:18;99536.25;;;15.41;100.00
5413;BME280;2729;50.056;8.678;2023-03-23T08:46:22;99543.69;;;15.49;100.00
5413;BME280;2729;50.056;8.678;2023-03-23T08:49:17;99541.00;;;15.19;100.00
5413;BME280;2729;50.056;8.678;2023-03-23T08:51:52;99552.13;;;15.24;100.00
5413;BME280;2729;50.056;8.678;2023-03-23T08:54:37;99546.44;;;15.31;100.00
5413;BME280;2729;50.056;8.678;2023-03-23T08:57:21;99532.53;;;15.13;100.00
5413;BME280;2729;50.056;8.678;2023-03-23T08:59:59;99541.00;;;15.19;100.00
5413;BME280;2729;50.056;8.678;2023-03-23T09:02:58;99534.72;;;15.21;100.00
5413;BME280;2729;50.056;8.678;2023-03-23T09:05:33;99521.03;;;15.46;100.00
5413;BME280;2729;50.056;8.678;2023-03-23T09:08:02;99521.47;;;15.54;100.00
5413;BME280;2729;50.056;8.678;2023-03-23T09:10:30;99529.97;;;15.59;100.00
5413;BME280;2729;50.056;8.678;2023-03-23T09:12:57;99528.56;;;15.84;100.00
5413;BME280;2729;50.056;8.678;2023-03-23T09:15:23;99533.59;;;15.41;100.00
5413;BME280;2729;50.056;8.678;2023-03-23T09:17:50;99526.81;;;15.98;100.00
5413;BME280;2729;50.056;8.678;2023-03-23T09:20:19;99536.13;;;15.90;100.00
5413;BME280;2729;50.056;8.678;2023-03-23T09:22:49;99533.38;;;15.91;100.00
5413;BME280;2729;50.056;8.678;2023-03-23T09:25:17;99544.00;;;15.90;100.00
5413;BME280;2729;50.056;8.678;2023-03-23T09:27:49;99542.44;;;16.01;100.00
5413;BME280;2729;50.056;8.678;2023-03-23T09:30:20;99539.34;;;16.09;100.00
5413;BME280;2729;50.056;8.678;2023-03-23T09:32:46;99537.59;;;15.80;100.00
5413;BME280;2729;50.056;8.678;2023-03-23T09:35:14;99536.81;;;16.07;100.00
5413;BME280;2729;50.056;8.678;2023-03-23T09:37:43;99543.53;;;16.42;100.00
5413;BME280;2729;50.056;8.678;2023-03-23T09:40:15;99533.34;;;16.21;100.00
5413;BME280;2729;50.056;8.678;2023-03-23T09:43:12;99532.44;;;16.51;100.00
5413;BME280;2729;50.056;8.678;2023-03-23T09:48:32;99540.19;;;16.68;100.00
5413;BME280;2729;50.056;8.678;2023-03-23T09:51:13;99544.19;;;16.59;100.00
5413;BME280;2729;50.056;8.678;2023-03-23T09:53:43;99554.56;;;16.62;100.00
5413;BME280;2729;50.056;8.678;2023-03-23T09:56:12;99530.63;;;17.08;100.00
5413;BME280;2729;50.056;8.678;2023-03-23T09:58:45;99540.69;;;17.16;100.00
5413;BME280;2729;50.056;8.678;2023-03-23T10:01:36;99541.41;;;17.86;100.00
5413;BME280;2729;50.056;8.678;2023-03-23T10:04:12;99526.44;;;17.99;100.00
5413;BME280;2729;50.056;8.678;2023-03-23T10:06:40;99545.38;;;17.52;100.00
5413;BME280;2729;50.056;8.678;2023-03-23T10:09:12;99533.84;;;17.67;100.00
5413;BME280;2729;50.056;8.678;2023-03-23T10:11:56;99539.56;;;17.74;100.00
5413;BME280;2729;50.056;8.678;2023-03-23T10:14:58;99548.72;;;17.00;100.00
5413;BME280;2729;50.056;8.678;2023-03-23T10:17:30;99547.50;;;17.32;100.00
5413;BME280;2729;50.056;8.678;2023-03-23T10:25:26;99564.28;;;16.90;100.00
5413;BME280;2729;50.056;8.678;2023-03-23T10:28:11;99564.13;;;17.20;100.00
5413;BME280;2729;50.056;8.678;2023-03-23T10:30:43;99571.59;;;16.99;100.00
5413;BME280;2729;50.056;8.678;2023-03-23T10:33:22;99581.94;;;16.60;100.00
5413;BME280;2729;50.056;8.678;2023-03-23T10:35:56;99581.28;;;16.56;100.00
5413;BME280;2729;50.056;8.678;2023-03-23T10:38:34;99573.69;;;16.94;100.00
5413;BME280;2729;50.056;8.678;2023-03-23T10:41:10;99583.41;;;16.35;100.00
5413;BME280;2729;50.056;8.678;2023-03-23T10:43:40;99584.47;;;16.61;100.00
5413;BME280;2729;50.056;8.678;2023-03-23T10:46:45;99588.13;;;16.45;100.00
5413;BME280;2729;50.056;8.678;2023-03-23T10:49:27;99572.56;;;16.84;100.00
5413;BME280;2729;50.056;8.678;2023-03-23T10:52:01;99587.16;;;16.90;100.00
5413;BME280;2729;50.056;8.678;2023-03-23T10:54:45;99572.19;;;16.90;100.00
5413;BME280;2729;50.056;8.678;2023-03-23T10:57:21;99583.53;;;16.62;100.00
5413;BME280;2729;50.056;8.678;2023-03-23T10:59:47;99570.47;;;16.89;100.00
5413;BME280;2729;50.056;8.678;2023-03-23T11:02:18;99562.56;;;16.89;100.00
5413;BME280;2729;50.056;8.678;2023-03-23T11:04:53;99550.28;;;17.17;100.00
5413;BME280;2729;50.056;8.678;2023-03-23T11:07:25;99572.88;;;17.62;100.00
5413;BME280;2729;50.056;8.678;2023-03-23T11:09:54;99576.41;;;16.93;100.00
5413;BME280;2729;50.056;8.678;2023-03-23T11:12:21;99574.53;;;16.95;100.00
5413;BME280;2729;50.056;8.678;2023-03-23T11:14:48;99569.06;;;17.39;100.00
5413;BME280;2729;50.056;8.678;2023-03-23T11:17:25;99563.53;;;17.29;100.00
5413;BME280;2729;50.056;8.678;2023-03-23T11:19:53;99567.72;;;17.46;100.00
5413;BME280;2729;50.056;8.678;2023-03-23T11:22:27;99560.25;;;17.26;100.00
5413;BME280;2729;50.056;8.678;2023-03-23T11:24:55;99580.03;;;17.19;100.00
5413;BME280;2729;50.056;8.678;2023-03-23T11:27:23;99586.44;;;17.29;100.00
5413;BME280;2729;50.056;8.678;2023-03-23T11:29:55;99587.97;;;17.04;100.00
5413;BME280;2729;50.056;8.678;2023-03-23T11:32:24;99580.66;;;16.81;100.00
5413;BME280;2729;50.056;8.678;2023-03-23T11:34:58;99574.00;;;17.31;100.00
5413;BME280;2729;50.056;8.678;2023-03-23T11:37:27;99571.25;;;17.74;100.00
5413;BME280;2729;50.056;8.678;2023-03-23T11:40:02;99568.63;;;17.32;100.00
5413;BME280;2729;50.056;8.678;2023-03-23T11:45:36;99569.09;;;17.25;100.00
5413;BME280;2729;50.056;8.678;2023-03-23T11:48:20;99567.34;;;17.52;100.00
5413;BME280;2729;50.056;8.678;2023-03-23T11:50:51;99571.41;;;17.44;100.00
5413;BME280;2729;50.056;8.678;2023-03-23T11:53:42;99572.28;;;17.71;100.00
5413;BME280;2729;50.056;8.678;2023-03-23T11:56:30;99573.91;;;17.59;100.00
5413;BME280;2729;50.056;8.678;2023-03-23T11:58:58;99572.34;;;17.43;100.00
5413;BME280;2729;50.056;8.678;2023-03-23T12:01:46;99579.16;;;17.74;100.00
5413;BME280;2729;50.056;8.678;2023-03-23T12:04:27;99580.41;;;17.68;100.00
5413;BME280;2729;50.056;8.678;2023-03-23T12:10:42;99571.81;;;17.64;100.00
5413;BME280;2729;50.056;8.678;2023-03-23T12:16:53;99561.50;;;17.47;100.00
5413;BME280;2729;50.056;8.678;2023-03-23T12:19:29;99561.03;;;17.82;100.00
5413;BME280;2729;50.056;8.678;2023-03-23T12:22:24;99559.66;;;17.35;100.00
5413;BME280;2729;50.056;8.678;2023-03-23T12:25:19;99553.75;;;17.31;100.00
5413;BME280;2729;50.056;8.678;2023-03-23T12:28:07;99551.03;;;17.99;100.00
5413;BME280;2729;50.056;8.678;2023-03-23T12:30:58;99543.28;;;18.23;100.00
5413;BME280;2729;50.056;8.678;2023-03-23T12:33:45;99538.19;;;17.68;100.00
5413;BME280;2729;50.056;8.678;2023-03-23T12:36:57;99531.13;;;18.21;100.00
5413;BME280;2729;50.056;8.678;2023-03-23T12:39:38;99514.00;;;18.26;100.00
5413;BME280;2729;50.056;8.678;2023-03-23T12:42:30;99521.97;;;17.87;100.00
5413;BME280;2729;50.056;8.678;2023-03-23T12:47:42;99501.22;;;18.71;100.00
5413;BME280;2729;50.056;8.678;2023-03-23T12:50:35;99497.41;;;18.50;100.00
5413;BME280;2729;50.056;8.678;2023-03-23T12:53:13;99504.09;;;18.30;100.00
5413;BME280;2729;50.056;8.678;2023-03-23T12:55:47;99501.34;;;18.31;100.00
5413;BME280;2729;50.056;8.678;2023-03-23T12:58:23;99510.72;;;18.48;100.00
5413;BME280;2729;50.056;8.678;2023-03-23T13:00:56;99517.28;;;18.68;100.00
5413;BME280;2729;50.056;8.678;2023-03-23T13:03:33;99509.47;;;18.41;100.00
5413;BME280;2729;50.056;8.678;2023-03-23T13:08:54;99513.41;;;18.61;100.00
5413;BME280;2729;50.056;8.678;2023-03-23T13:11:30;99519.81;;;18.82;99.34
5413;BME280;2729;50.056;8.678;2023-03-23T13:20:23;99504.13;;;18.03;100.00
5413;BME280;2729;50.056;8.678;2023-03-23T13:23:14;99498.88;;;18.16;100.00
5413;BME280;2729;50.056;8.678;2023-03-23T13:26:02;99494.78;;;18.24;100.00
5413;BME280;2729;50.056;8.678;2023-03-23T13:28:59;99494.56;;;18.27;100.00
5413;BME280;2729;50.056;8.678;2023-03-23T13:31:33;99496.59;;;18.62;100.00
5413;BME280;2729;50.056;8.678;2023-03-23T13:34:05;99481.97;;;18.69;100.00
5413;BME280;2729;50.056;8.678;2023-03-23T13:36:40;99475.50;;;18.73;100.00
5413;BME280;2729;50.056;8.678;2023-03-23T13:39:20;99493.38;;;18.82;100.00
5413;BME280;2729;50.056;8.678;2023-03-23T13:42:17;99496.78;;;18.46;100.00
5413;BME280;2729;50.056;8.678;2023-03-23T13:50:10;99483.25;;;18.51;100.00
5413;BME280;2729;50.056;8.678;2023-03-23T13:57:49;99493.53;;;17.78;100.00
5413;BME280;2729;50.056;8.678;2023-03-23T14:00:46;99502.81;;;17.44;100.00
5413;BME280;2729;50.056;8.678;2023-03-23T14:03:40;99496.28;;;17.76;100.00
5413;BME280;2729;50.056;8.678;2023-03-23T14:06:14;99478.06;;;18.11;100.00
5413;BME280;2729;50.056;8.678;2023-03-23T14:09:10;99500.72;;;17.76;100.00
5413;BME280;2729;50.056;8.678;2023-03-23T14:12:14;99490.53;;;17.03;100.00
5413;BME280;2729;50.056;8.678;2023-03-23T14:14:46;99487.34;;;17.25;100.00
5413;BME280;2729;50.056;8.678;2023-03-23T14:17:16;99483.63;;;17.81;100.00
5413;BME280;2729;50.056;8.678;2023-03-23T14:19:47;99491.75;;;17.78;100.00
5413;BME280;2729;50.056;8.678;2023-03-23T14:22:23;99499.28;;;17.97;100.00
5413;BME280;2729;50.056;8.678;2023-03-23T14:24:50;99498.47;;;18.47;100.00
5413;BME280;2729;50.056;8.678;2023-03-23T14:27:21;99497.50;;;18.10;100.00
5413;BME280;2729;50.056;8.678;2023-03-23T14:30:03;99491.13;;;17.48;100.00
5413;BME280;2729;50.056;8.678;2023-03-23T14:32:31;99502.06;;;17.42;100.00
5413;BME280;2729;50.056;8.678;2023-03-23T14:34:59;99507.59;;;17.78;100.00
5413;BME280;2729;50.056;8.678;2023-03-23T14:37:26;99499.72;;;18.16;100.00
5413;BME280;2729;50.056;8.678;2023-03-23T14:39:53;99495.69;;;17.98;100.00
5413;BME280;2729;50.056;8.678;2023-03-23T14:42:35;99494.25;;;17.67;100.00